Time;durP1;ratioP1;P1;durP2;ratioP2;P2;SDS_P1;SDS_P2;PMS_P1;PMS_P2;Temp;Humidity;BMP_temperature;BMP_pressure;BME280_temperature;BME280_humidity;BME280_pressure;Samples;Min_cycle;Max_cycle;Signal;HPM_P1;HPM_P2
2022/01/05 00:01:08;;;;;;;;;;;3.90;99.90;;;;;;5056399;28;19920;-72
2022/01/05 00:03:34;;;;;;;;;;;2.20;99.90;;;;;;5055527;28;20322;-75
2022/01/05 00:05:59;;;;;;;;;;;2.20;99.90;;;;;;5056424;28;19927;-72
2022/01/05 00:08:25;;;;;;;;;;;2.20;99.90;;;;;;5056552;28;20434;-72
2022/01/05 00:10:53;;;;;;;;;;;2.20;99.90;;;;;;5056119;28;19920;-73
2022/01/05 00:13:19;;;;;;;;;;;3.10;99.90;;;;;;5056169;28;19924;-73
2022/01/05 00:15:45;;;;;;;;;;;4.00;99.90;;;;;;5055988;28;20284;-73
2022/01/05 00:18:10;;;;;;;;;;;3.60;99.90;;;;;;5056267;28;19920;-72
2022/01/05 00:20:36;;;;;;;;;;;2.20;99.90;;;;;;5056148;28;19971;-74
2022/01/05 00:23:02;;;;;;;;;;;2.20;99.90;;;;;;5056154;28;19921;-73
2022/01/05 00:25:27;;;;;;;;;;;2.20;99.90;;;;;;5056024;28;19927;-73
2022/01/05 00:27:53;;;;;;;;;;;2.20;99.90;;;;;;5054981;28;20011;-73
2022/01/05 00:30:18;;;;;;;;;;;2.10;99.90;;;;;;5055813;28;19928;-72
2022/01/05 00:32:44;;;;;;;;;;;2.20;99.90;;;;;;5055668;28;19921;-74
2022/01/05 00:35:11;;;;;;;;;;;2.80;99.90;;;;;;5055696;28;19928;-73
2022/01/05 00:37:36;;;;;;;;;;;2.10;99.90;;;;;;5054951;28;19921;-73
2022/01/05 00:40:03;;;;;;;;;;;1.70;99.90;;;;;;5054860;28;19925;-74
2022/01/05 00:42:28;;;;;;;;;;;3.70;99.90;;;;;;5055706;28;19921;-74
2022/01/05 00:44:54;;;;;;;;;;;2.40;99.90;;;;;;5054735;28;19927;-75
2022/01/05 00:47:20;;;;;;;;;;;2.10;99.90;;;;;;5055411;28;19920;-73
2022/01/05 00:49:46;;;;;;;;;;;2.90;99.90;;;;;;5055559;28;20302;-74
2022/01/05 00:52:12;;;;;;;;;;;3.20;99.90;;;;;;5055520;28;19920;-72
2022/01/05 00:54:38;;;;;;;;;;;2.10;99.90;;;;;;5055545;28;19935;-72
2022/01/05 00:57:03;;;;;;;;;;;2.90;99.90;;;;;;5054529;28;19925;-73
2022/01/05 00:59:29;;;;;;;;;;;1.80;99.90;;;;;;5055390;28;19921;-73
2022/01/05 01:01:54;;;;;;;;;;;3.70;99.90;;;;;;5055425;28;19920;-72
2022/01/05 01:04:20;;;;;;;;;;;2.10;99.90;;;;;;5054375;28;19978;-73
2022/01/05 01:06:45;;;;;;;;;;;2.10;99.90;;;;;;5054334;28;20399;-73
2022/01/05 01:09:12;;;;;;;;;;;2.10;99.90;;;;;;5055240;28;19921;-72
2022/01/05 01:11:38;;;;;;;;;;;0.20;99.90;;;;;;5055038;28;19921;-73
2022/01/05 01:14:04;;;;;;;;;;;2.70;99.90;;;;;;5053733;28;19921;-73
2022/01/05 01:16:30;;;;;;;;;;;2.20;99.90;;;;;;5053982;28;19920;-73
2022/01/05 01:18:55;;;;;;;;;;;2.20;99.90;;;;;;5053883;28;19920;-73
2022/01/05 01:21:21;;;;;;;;;;;2.40;99.90;;;;;;5054962;28;19927;-74
2022/01/05 01:23:56;;;;;;;;;;;2.20;99.90;;;;;;5054969;28;19979;-73
2022/01/05 01:26:28;;;;;;;;;;;3.90;99.90;;;;;;5054801;28;19921;-73
2022/01/05 01:28:55;;;;;;;;;;;2.20;99.90;;;;;;5054763;28;19928;-73
2022/01/05 01:31:20;;;;;;;;;;;2.20;99.90;;;;;;5054761;28;19975;-73
2022/01/05 01:33:46;;;;;;;;;;;2.60;99.90;;;;;;5054594;28;19924;-75
2022/01/05 01:36:12;;;;;;;;;;;2.50;99.90;;;;;;5054892;28;20023;-73
2022/01/05 01:38:37;;;;;;;;;;;2.30;99.90;;;;;;5053643;28;19921;-73
2022/01/05 01:41:03;;;;;;;;;;;2.30;99.90;;;;;;5054552;28;19981;-74
2022/01/05 01:43:29;;;;;;;;;;;0.70;99.90;;;;;;5054507;28;19987;-73
2022/01/05 01:45:54;;;;;;;;;;;2.30;99.90;;;;;;5054421;28;19973;-73
2022/01/05 01:48:20;;;;;;;;;;;2.30;99.90;;;;;;5053748;28;19928;-74
2022/01/05 01:50:45;;;;;;;;;;;4.60;99.90;;;;;;5053531;28;19928;-74
2022/01/05 01:53:11;;;;;;;;;;;3.30;99.90;;;;;;5054387;28;20011;-73
2022/01/05 01:55:37;;;;;;;;;;;2.20;99.90;;;;;;5054310;28;19927;-73
2022/01/05 01:58:04;;;;;;;;;;;2.40;99.90;;;;;;5054206;28;19932;-74
2022/01/05 02:00:30;;;;;;;;;;;2.30;99.90;;;;;;5054061;28;20015;-73
2022/01/05 02:02:55;;;;;;;;;;;2.30;99.90;;;;;;5054013;28;19960;-73
2022/01/05 02:05:21;;;;;;;;;;;2.70;99.90;;;;;;5054186;28;19924;-72
2022/01/05 02:07:47;;;;;;;;;;;2.30;99.90;;;;;;5054171;28;19920;-73
2022/01/05 02:10:12;;;;;;;;;;;3.90;99.90;;;;;;5054144;28;19951;-73
2022/01/05 02:12:38;;;;;;;;;;;3.80;99.90;;;;;;5052939;28;19920;-74
2022/01/05 02:15:04;;;;;;;;;;;3.30;99.90;;;;;;5053957;28;19927;-73
2022/01/05 02:17:43;;;;;;;;;;;2.30;99.90;;;;;;5053880;28;19982;-73
2022/01/05 02:20:16;;;;;;;;;;;2.30;99.90;;;;;;5053889;28;19927;-72
2022/01/05 02:22:42;;;;;;;;;;;2.30;99.90;;;;;;5053905;28;19921;-74
2022/01/05 02:25:08;;;;;;;;;;;3.90;99.90;;;;;;5053888;28;19928;-73
2022/01/05 02:27:33;;;;;;;;;;;2.30;99.90;;;;;;5036213;28;19971;-73
2022/01/05 02:29:59;;;;;;;;;;;2.40;99.90;;;;;;5052694;28;19921;-72
2022/01/05 02:32:24;;;;;;;;;;;3.90;99.90;;;;;;5053462;28;19932;-74
2022/01/05 02:34:50;;;;;;;;;;;3.50;99.90;;;;;;5052467;28;19928;-75
2022/01/05 02:37:15;;;;;;;;;;;2.40;99.90;;;;;;5052793;28;19960;-73
2022/01/05 02:39:41;;;;;;;;;;;3.10;99.90;;;;;;5053664;28;20015;-73
2022/01/05 02:42:06;;;;;;;;;;;2.40;99.90;;;;;;5052692;28;19924;-73
2022/01/05 02:44:32;;;;;;;;;;;2.40;99.90;;;;;;5053556;28;19947;-73
2022/01/05 02:46:58;;;;;;;;;;;3.40;99.90;;;;;;5053415;28;19921;-74
2022/01/05 02:49:23;;;;;;;;;;;0.40;99.90;;;;;;5053723;28;19924;-74
2022/01/05 02:51:49;;;;;;;;;;;3.40;99.90;;;;;;5053513;28;19921;-75
2022/01/05 02:54:14;;;;;;;;;;;2.30;99.90;;;;;;5053639;28;20257;-73
2022/01/05 02:56:40;;;;;;;;;;;2.90;99.90;;;;;;5052498;28;19920;-73
2022/01/05 02:59:06;;;;;;;;;;;3.40;99.90;;;;;;5052580;28;20323;-74
2022/01/05 03:01:33;;;;;;;;;;;2.40;99.90;;;;;;5057810;28;20326;-74
2022/01/05 03:03:58;;;;;;;;;;;2.30;99.90;;;;;;5057368;28;19925;-73
2022/01/05 03:06:24;;;;;;;;;;;2.30;99.90;;;;;;5056393;28;19920;-73
2022/01/05 03:08:50;;;;;;;;;;;4.00;99.90;;;;;;5057514;28;19972;-74
2022/01/05 03:11:16;;;;;;;;;;;3.60;99.90;;;;;;5057415;28;19920;-73
2022/01/05 03:13:43;;;;;;;;;;;4.10;99.90;;;;;;5057385;28;19921;-73
2022/01/05 03:16:08;;;;;;;;;;;4.20;99.90;;;;;;5057280;28;20007;-73
2022/01/05 03:18:34;;;;;;;;;;;2.30;99.90;;;;;;5057141;28;20453;-74
2022/01/05 03:20:59;;;;;;;;;;;2.30;99.90;;;;;;5057274;28;19924;-72
2022/01/05 03:23:25;;;;;;;;;;;2.90;99.90;;;;;;5057373;28;19924;-73
2022/01/05 03:25:51;;;;;;;;;;;2.30;99.90;;;;;;5057022;28;20396;-72
2022/01/05 03:28:16;;;;;;;;;;;2.40;99.90;;;;;;5056976;28;19935;-73
2022/01/05 03:30:42;;;;;;;;;;;3.60;99.90;;;;;;5057093;28;20356;-73
2022/01/05 03:33:19;;;;;;;;;;;3.80;99.90;;;;;;5072246;28;19921;-73
2022/01/05 03:35:45;;;;;;;;;;;4.00;99.90;;;;;;5057215;28;19974;-74
2022/01/05 03:38:12;;;;;;;;;;;3.10;99.90;;;;;;5057012;28;19920;-73
2022/01/05 03:40:38;;;;;;;;;;;2.30;99.90;;;;;;5056895;28;19928;-72
2022/01/05 03:43:04;;;;;;;;;;;1.30;99.90;;;;;;5056762;28;19921;-73
2022/01/05 03:45:30;;;;;;;;;;;3.40;99.90;;;;;;5055711;28;19921;-73
2022/01/05 03:47:56;;;;;;;;;;;2.30;99.90;;;;;;5055412;28;19928;-73
2022/01/05 03:50:21;;;;;;;;;;;2.30;99.90;;;;;;5056758;28;19974;-73
2022/01/05 03:52:47;;;;;;;;;;;4.30;99.90;;;;;;5056615;28;19921;-75
2022/01/05 03:55:12;;;;;;;;;;;2.40;99.90;;;;;;5056453;28;19924;-74
2022/01/05 03:57:38;;;;;;;;;;;1.90;99.90;;;;;;5056697;28;19921;-73
2022/01/05 04:00:04;;;;;;;;;;;4.70;99.90;;;;;;5056539;28;20343;-73
2022/01/05 04:02:30;;;;;;;;;;;2.50;99.90;;;;;;5056286;28;19936;-72
2022/01/05 04:04:56;;;;;;;;;;;4.70;99.90;;;;;;5056175;28;19920;-74
2022/01/05 04:07:21;;;;;;;;;;;4.10;99.90;;;;;;5056471;28;19959;-73
2022/01/05 04:09:47;;;;;;;;;;;4.30;99.90;;;;;;5056078;28;19971;-73
2022/01/05 04:12:13;;;;;;;;;;;4.40;99.90;;;;;;5055041;28;20595;-72
2022/01/05 04:14:38;;;;;;;;;;;3.10;99.90;;;;;;5056189;28;20011;-73
2022/01/05 04:17:04;;;;;;;;;;;2.60;99.90;;;;;;5055184;28;20011;-72
2022/01/05 04:19:31;;;;;;;;;;;2.50;99.90;;;;;;5056013;28;19921;-73
2022/01/05 04:21:57;;;;;;;;;;;2.80;99.90;;;;;;5055151;28;20363;-73
2022/01/05 04:24:22;;;;;;;;;;;2.40;99.90;;;;;;5055933;28;19924;-74
2022/01/05 04:26:48;;;;;;;;;;;3.70;99.90;;;;;;5056027;28;19921;-74
2022/01/05 04:29:13;;;;;;;;;;;1.90;99.90;;;;;;5055965;28;19951;-73
2022/01/05 04:31:39;;;;;;;;;;;3.40;99.90;;;;;;5056113;28;19924;-74
2022/01/05 04:34:05;;;;;;;;;;;2.60;99.90;;;;;;5055629;28;19921;-73
2022/01/05 04:36:30;;;;;;;;;;;3.40;99.90;;;;;;5055867;28;19924;-74
2022/01/05 04:38:56;;;;;;;;;;;4.50;99.90;;;;;;5055878;28;20007;-73
2022/01/05 04:41:21;;;;;;;;;;;2.60;99.90;;;;;;5054876;28;19921;-74
2022/01/05 04:43:47;;;;;;;;;;;2.60;99.90;;;;;;5054739;28;19927;-73
2022/01/05 04:46:13;;;;;;;;;;;3.30;99.90;;;;;;5056010;28;19924;-73
2022/01/05 04:48:38;;;;;;;;;;;4.10;99.90;;;;;;5054564;28;19920;-73
2022/01/05 04:51:04;;;;;;;;;;;2.80;99.90;;;;;;5055330;28;19921;-73
2022/01/05 04:53:29;;;;;;;;;;;4.00;99.90;;;;;;5055477;28;20023;-73
2022/01/05 04:55:55;;;;;;;;;;;2.70;99.90;;;;;;5055708;28;19921;-73
2022/01/05 04:58:21;;;;;;;;;;;2.70;99.90;;;;;;5054387;28;19925;-73
2022/01/05 05:00:47;;;;;;;;;;;0.80;99.90;;;;;;5055173;28;20379;-73
2022/01/05 05:03:12;;;;;;;;;;;2.70;99.90;;;;;;5055196;28;19924;-74
2022/01/05 05:05:38;;;;;;;;;;;3.60;99.90;;;;;;5054012;28;19928;-75
2022/01/05 05:08:04;;;;;;;;;;;3.90;99.90;;;;;;5054171;28;19921;-72
2022/01/05 05:10:29;;;;;;;;;;;4.10;99.90;;;;;;5055270;28;19928;-73
2022/01/05 05:12:55;;;;;;;;;;;3.30;99.90;;;;;;5055088;28;19928;-75
2022/01/05 05:15:20;;;;;;;;;;;3.50;99.90;;;;;;5055068;28;19924;-73
2022/01/05 05:17:46;;;;;;;;;;;2.80;99.90;;;;;;5054966;28;19921;-73
2022/01/05 05:20:11;;;;;;;;;;;2.90;99.90;;;;;;5054903;28;20015;-74
2022/01/05 05:22:37;;;;;;;;;;;3.80;99.90;;;;;;5054198;28;19920;-75
2022/01/05 05:25:03;;;;;;;;;;;3.50;99.90;;;;;;5055026;28;20330;-73
2022/01/05 05:27:29;;;;;;;;;;;2.80;99.90;;;;;;5070415;28;19921;-74
2022/01/05 05:29:55;;;;;;;;;;;2.90;99.90;;;;;;5070018;28;19920;-73
2022/01/05 05:32:20;;;;;;;;;;;2.90;99.90;;;;;;5054634;28;20019;-73
2022/01/05 05:34:46;;;;;;;;;;;4.10;99.90;;;;;;5054611;28;19924;-73
2022/01/05 05:37:11;;;;;;;;;;;2.90;99.90;;;;;;5054482;28;19921;-73
2022/01/05 05:39:37;;;;;;;;;;;3.20;99.90;;;;;;5053695;28;19927;-72
2022/01/05 05:42:03;;;;;;;;;;;1.90;99.90;;;;;;5054630;28;19932;-73
2022/01/05 05:44:28;;;;;;;;;;;3.00;99.90;;;;;;5054563;28;19920;-73
2022/01/05 05:46:54;;;;;;;;;;;3.00;99.90;;;;;;5053385;28;19978;-73
2022/01/05 05:49:19;;;;;;;;;;;4.70;99.90;;;;;;5054511;28;20034;-74
2022/01/05 05:51:45;;;;;;;;;;;3.60;99.90;;;;;;5054113;28;19920;-73
2022/01/05 05:54:10;;;;;;;;;;;3.20;99.90;;;;;;5054775;28;19920;-72
2022/01/05 05:56:36;;;;;;;;;;;4.80;99.90;;;;;;5054468;28;19976;-74
2022/01/05 05:59:02;;;;;;;;;;;2.80;99.90;;;;;;5054223;28;20402;-74
2022/01/05 06:01:27;;;;;;;;;;;3.30;99.90;;;;;;5054182;28;19928;-74
2022/01/05 06:03:53;;;;;;;;;;;4.90;99.90;;;;;;5053264;28;19929;-73
2022/01/05 06:06:19;;;;;;;;;;;3.50;99.90;;;;;;5053939;28;19935;-73
2022/01/05 06:08:44;;;;;;;;;;;3.30;99.90;;;;;;5069490;28;19927;-73
2022/01/05 06:11:10;;;;;;;;;;;3.80;99.90;;;;;;5054133;28;19921;-73
2022/01/05 06:13:35;;;;;;;;;;;2.80;99.90;;;;;;5052760;28;20015;-73
2022/01/05 06:16:01;;;;;;;;;;;3.40;99.90;;;;;;5053953;28;19927;-73
2022/01/05 06:18:26;;;;;;;;;;;5.30;99.90;;;;;;5053937;28;19924;-72
2022/01/05 06:20:52;;;;;;;;;;;5.40;99.90;;;;;;5052546;28;19921;-74
2022/01/05 06:23:17;;;;;;;;;;;3.40;99.90;;;;;;5053760;28;20299;-73
2022/01/05 06:25:43;;;;;;;;;;;5.10;99.90;;;;;;5054028;28;19921;-77
2022/01/05 06:28:11;;;;;;;;;;;3.40;99.90;;;;;;5053928;28;19920;-75
2022/01/05 06:30:39;;;;;;;;;;;3.30;99.90;;;;;;5053907;28;19940;-74
2022/01/05 06:33:05;;;;;;;;;;;3.30;99.90;;;;;;5053424;28;19964;-76
2022/01/05 06:35:30;;;;;;;;;;;4.20;99.90;;;;;;5052762;28;19925;-75
2022/01/05 06:37:56;;;;;;;;;;;3.20;99.90;;;;;;5053558;28;19927;-77
2022/01/05 06:40:22;;;;;;;;;;;3.30;99.90;;;;;;5053846;28;19921;-75
2022/01/05 06:42:48;;;;;;;;;;;3.20;99.90;;;;;;5053821;28;20315;-76
2022/01/05 06:45:13;;;;;;;;;;;4.70;99.90;;;;;;5053677;28;19932;-76
2022/01/05 06:47:39;;;;;;;;;;;4.70;99.90;;;;;;5053600;28;20379;-74
2022/01/05 06:50:05;;;;;;;;;;;4.50;99.90;;;;;;5053461;28;19947;-76
2022/01/05 06:52:30;;;;;;;;;;;3.20;99.90;;;;;;5053355;28;20019;-76
2022/01/05 06:54:56;;;;;;;;;;;3.50;99.90;;;;;;5053373;28;20277;-75
2022/01/05 06:57:22;;;;;;;;;;;4.90;99.90;;;;;;5053595;28;20024;-75
2022/01/05 06:59:48;;;;;;;;;;;3.10;99.90;;;;;;5053390;28;19966;-77
2022/01/05 07:02:13;;;;;;;;;;;2.20;99.90;;;;;;5053422;28;19925;-76
2022/01/05 07:04:39;;;;;;;;;;;5.20;99.90;;;;;;5053428;28;19920;-73
2022/01/05 07:07:05;;;;;;;;;;;4.70;99.90;;;;;;5053292;28;19921;-74
2022/01/05 07:09:30;;;;;;;;;;;3.10;99.90;;;;;;5068782;28;19991;-78
2022/01/05 07:11:56;;;;;;;;;;;5.00;99.90;;;;;;5053370;28;19920;-76
2022/01/05 07:14:23;;;;;;;;;;;2.80;99.90;;;;;;5052491;28;20017;-75
2022/01/05 07:16:50;;;;;;;;;;;3.10;99.90;;;;;;5053292;28;19921;-76
2022/01/05 07:19:16;;;;;;;;;;;4.10;99.90;;;;;;5053285;28;19920;-76
2022/01/05 07:21:41;;;;;;;;;;;3.10;99.90;;;;;;5053226;28;19921;-76
2022/01/05 07:24:11;;;;;;;;;;;3.20;99.90;;;;;;5053100;28;19928;-75
2022/01/05 07:26:37;;;;;;;;;;;3.20;99.90;;;;;;5052180;28;20019;-76
2022/01/05 07:29:03;;;;;;;;;;;4.90;99.90;;;;;;5053240;28;20414;-74
2022/01/05 07:31:29;;;;;;;;;;;3.30;99.90;;;;;;5053024;28;19921;-74
2022/01/05 07:33:54;;;;;;;;;;;3.30;99.90;;;;;;5068328;28;19928;-73
2022/01/05 07:36:20;;;;;;;;;;;3.30;99.90;;;;;;5051485;28;19921;-76
2022/01/05 07:38:45;;;;;;;;;;;3.30;99.90;;;;;;5052876;28;19944;-75
2022/01/05 07:41:11;;;;;;;;;;;3.40;99.90;;;;;;5052913;28;19978;-74
2022/01/05 07:43:36;;;;;;;;;;;4.40;99.90;;;;;;5052183;28;20287;-75
2022/01/05 07:46:02;;;;;;;;;;;3.40;99.90;;;;;;5054917;28;19974;-76
2022/01/05 07:48:28;;;;;;;;;;;4.50;99.90;;;;;;5055484;28;20388;-75
2022/01/05 07:50:54;;;;;;;;;;;5.20;99.90;;;;;;5056450;28;19928;-74
2022/01/05 07:53:20;;;;;;;;;;;3.50;99.90;;;;;;5055430;28;20375;-76
2022/01/05 07:55:45;;;;;;;;;;;5.00;99.90;;;;;;5056372;28;19920;-76
2022/01/05 07:58:11;;;;;;;;;;;4.30;99.90;;;;;;5056610;28;19930;-74
2022/01/05 08:00:37;;;;;;;;;;;3.50;99.90;;;;;;5056465;28;20087;-75
2022/01/05 08:03:02;;;;;;;;;;;3.60;99.90;;;;;;5056398;28;19986;-76
2022/01/05 08:05:43;;;;;;;;;;;3.70;99.90;;;;;;5056293;28;20299;-75
2022/01/05 08:08:09;;;;;;;;;;;3.50;99.90;;;;;;5056215;28;19921;-75
2022/01/05 08:10:34;;;;;;;;;;;5.40;99.90;;;;;;5056122;28;19920;-75
2022/01/05 08:13:00;;;;;;;;;;;3.60;99.90;;;;;;5056299;28;19920;-76
2022/01/05 08:15:25;;;;;;;;;;;3.60;99.90;;;;;;5056220;28;19966;-74
2022/01/05 08:17:51;;;;;;;;;;;4.30;99.90;;;;;;5056235;28;19924;-77
2022/01/05 08:20:16;;;;;;;;;;;3.60;99.90;;;;;;5056060;28;19920;-74
2022/01/05 08:22:43;;;;;;;;;;;3.30;99.90;;;;;;5055976;28;19920;-75
2022/01/05 08:25:13;;;;;;;;;;;3.60;99.90;;;;;;5054628;28;19920;-74
2022/01/05 08:27:46;;;;;;;;;;;3.70;99.90;;;;;;5054894;28;19921;-76
2022/01/05 08:30:12;;;;;;;;;;;4.70;99.90;;;;;;5055940;28;19920;-72
2022/01/05 08:32:38;;;;;;;;;;;3.70;99.90;;;;;;5055805;28;19921;-75
2022/01/05 08:35:04;;;;;;;;;;;4.20;99.90;;;;;;5055807;28;20019;-77
2022/01/05 08:37:29;;;;;;;;;;;3.70;99.90;;;;;;5055590;28;19982;-74
2022/01/05 08:39:55;;;;;;;;;;;4.80;99.90;;;;;;5055584;28;19975;-75
2022/01/05 08:42:21;;;;;;;;;;;4.60;99.90;;;;;;5055652;28;19927;-76
2022/01/05 08:44:46;;;;;;;;;;;3.80;99.90;;;;;;5055798;28;19925;-76
2022/01/05 08:47:12;;;;;;;;;;;3.80;99.90;;;;;;5055754;28;19920;-73
2022/01/05 08:49:38;;;;;;;;;;;4.70;99.90;;;;;;5055630;28;19921;-76
2022/01/05 08:52:03;;;;;;;;;;;2.10;99.90;;;;;;5055317;28;19921;-74
2022/01/05 08:54:29;;;;;;;;;;;3.90;99.90;;;;;;5055347;28;19921;-74
2022/01/05 08:56:55;;;;;;;;;;;3.90;99.90;;;;;;5054325;28;19928;-74
2022/01/05 08:59:20;;;;;;;;;;;5.40;99.90;;;;;;5055095;28;19921;-74
2022/01/05 09:01:46;;;;;;;;;;;4.00;99.90;;;;;;5055368;28;19924;-75
2022/01/05 09:04:11;;;;;;;;;;;4.00;99.90;;;;;;5054272;28;19929;-74
2022/01/05 09:06:37;;;;;;;;;;;4.10;99.90;;;;;;5054216;28;19921;-77
2022/01/05 09:09:03;;;;;;;;;;;4.10;99.90;;;;;;5055062;28;19924;-73
2022/01/05 09:11:29;;;;;;;;;;;4.10;99.90;;;;;;5055078;28;19920;-72
2022/01/05 09:13:54;;;;;;;;;;;5.40;99.90;;;;;;5055246;28;19928;-74
2022/01/05 09:16:20;;;;;;;;;;;5.90;99.90;;;;;;5055179;28;20042;-73
2022/01/05 09:18:46;;;;;;;;;;;5.10;99.90;;;;;;5055074;28;19936;-74
2022/01/05 09:21:12;;;;;;;;;;;3.90;99.90;;;;;;5054885;28;19946;-73
2022/01/05 09:23:38;;;;;;;;;;;4.00;99.90;;;;;;5054919;28;20048;-75
2022/01/05 09:26:03;;;;;;;;;;;4.10;99.90;;;;;;5054774;28;19920;-73
2022/01/05 09:28:29;;;;;;;;;;;4.20;99.90;;;;;;5054877;28;20011;-73
2022/01/05 09:30:55;;;;;;;;;;;4.20;99.90;;;;;;5054054;28;19921;-75
2022/01/05 09:33:22;;;;;;;;;;;4.20;99.90;;;;;;5053369;28;19921;-74
2022/01/05 09:35:49;;;;;;;;;;;4.30;99.90;;;;;;5054587;28;20423;-73
2022/01/05 09:38:34;;;;;;;;;;;5.00;99.90;;;;;;5054405;28;19928;-74
2022/01/05 09:43:51;;;;;;;;;;;4.40;99.90;;;;;;5054361;28;19928;-75
2022/01/05 09:46:29;;;;;;;;;;;3.40;99.90;;;;;;5054324;28;19920;-73
2022/01/05 09:49:06;;;;;;;;;;;4.50;99.90;;;;;;5054243;28;19943;-74
2022/01/05 09:51:33;;;;;;;;;;;4.50;99.90;;;;;;5053002;28;20387;-74
2022/01/05 09:54:00;;;;;;;;;;;4.50;99.90;;;;;;5069733;28;19921;-76
2022/01/05 09:56:29;;;;;;;;;;;5.40;99.90;;;;;;5053742;28;19921;-74
2022/01/05 09:58:55;;;;;;;;;;;6.20;99.90;;;;;;5053975;28;19921;-73
2022/01/05 10:01:21;;;;;;;;;;;4.70;99.90;;;;;;5052454;28;19927;-74
2022/01/05 10:03:47;;;;;;;;;;;6.20;99.90;;;;;;5053861;28;19950;-74
2022/01/05 10:06:25;;;;;;;;;;;4.90;99.90;;;;;;5053849;28;19942;-73
2022/01/05 10:08:51;;;;;;;;;;;5.00;99.90;;;;;;5052147;28;20367;-75
2022/01/05 10:11:17;;;;;;;;;;;5.60;99.90;;;;;;5053967;28;19927;-75
2022/01/05 10:13:43;;;;;;;;;;;3.30;99.90;;;;;;5053827;28;19996;-73
2022/01/05 10:16:10;;;;;;;;;;;6.40;99.90;;;;;;5053764;28;19971;-73
2022/01/05 10:18:39;;;;;;;;;;;5.20;99.90;;;;;;5053710;28;19927;-74
2022/01/05 10:21:06;;;;;;;;;;;5.20;99.90;;;;;;5053820;28;19920;-74
2022/01/05 10:23:31;;;;;;;;;;;5.20;99.90;;;;;;5053781;28;19927;-73
2022/01/05 10:26:16;;;;;;;;;;;6.50;99.90;;;;;;5053552;28;19920;-74
2022/01/05 10:28:42;;;;;;;;;;;5.40;99.90;;;;;;5053514;28;20426;-73
2022/01/05 10:31:12;;;;;;;;;;;6.50;99.90;;;;;;5053616;28;19920;-74
2022/01/05 10:33:38;;;;;;;;;;;5.50;99.90;;;;;;5052325;28;20007;-73
2022/01/05 10:36:03;;;;;;;;;;;5.50;99.90;;;;;;5053615;28;20517;-73
2022/01/05 10:38:29;;;;;;;;;;;5.60;99.90;;;;;;5052493;28;19927;-73
2022/01/05 10:40:55;;;;;;;;;;;5.70;99.90;;;;;;5053487;28;19920;-74
2022/01/05 10:43:20;;;;;;;;;;;5.70;99.90;;;;;;5053415;28;19924;-73
2022/01/05 10:45:47;;;;;;;;;;;5.80;99.90;;;;;;5053335;28;19960;-72
2022/01/05 10:48:13;;;;;;;;;;;5.80;99.90;;;;;;5053267;28;19931;-73
2022/01/05 10:50:39;;;;;;;;;;;6.10;99.90;;;;;;5052208;28;20000;-74
2022/01/05 10:53:05;;;;;;;;;;;6.00;99.90;;;;;;5053084;28;19928;-72
2022/01/05 10:55:32;;;;;;;;;;;6.00;99.90;;;;;;5052131;28;19978;-73
2022/01/05 10:57:59;;;;;;;;;;;6.00;99.90;;;;;;5052339;28;20011;-73
2022/01/05 11:00:32;;;;;;;;;;;7.20;99.90;;;;;;5052824;28;19920;-73
2022/01/05 11:02:58;;;;;;;;;;;6.10;99.90;;;;;;5052087;28;19975;-73
2022/01/05 11:05:24;;;;;;;;;;;6.20;99.90;;;;;;5053306;28;19920;-73
2022/01/05 11:07:50;;;;;;;;;;;6.20;99.90;;;;;;5053155;28;19927;-73
2022/01/05 11:10:17;;;;;;;;;;;6.30;99.90;;;;;;5053210;28;19921;-74
2022/01/05 11:12:44;;;;;;;;;;;6.20;99.90;;;;;;5052137;28;19978;-73
2022/01/05 11:15:28;;;;;;;;;;;6.10;99.90;;;;;;5051861;28;20273;-73
2022/01/05 11:18:14;;;;;;;;;;;6.00;99.90;;;;;;5053018;28;20276;-73
2022/01/05 11:20:46;;;;;;;;;;;6.00;99.90;;;;;;5054479;28;19944;-74
2022/01/05 11:23:13;;;;;;;;;;;6.00;99.90;;;;;;5056959;28;20417;-73
2022/01/05 11:25:41;;;;;;;;;;;6.00;99.90;;;;;;5056873;28;19960;-74
2022/01/05 11:28:08;;;;;;;;;;;6.10;99.90;;;;;;5056088;28;20054;-73
2022/01/05 11:30:35;;;;;;;;;;;6.20;99.90;;;;;;5057102;28;19921;-73
2022/01/05 11:33:00;;;;;;;;;;;6.30;99.90;;;;;;5056625;28;19921;-74
2022/01/05 11:35:27;;;;;;;;;;;6.40;99.90;;;;;;5056863;28;20059;-74
2022/01/05 11:37:54;;;;;;;;;;;6.40;99.90;;;;;;5056670;28;19925;-73
2022/01/05 11:40:21;;;;;;;;;;;6.50;99.90;;;;;;5056661;28;19927;-72
2022/01/05 11:42:48;;;;;;;;;;;6.50;99.90;;;;;;5056815;28;19959;-73
2022/01/05 11:45:34;;;;;;;;;;;6.60;99.90;;;;;;5056789;28;20015;-74
2022/01/05 11:48:19;;;;;;;;;;;6.70;99.90;;;;;;5056181;28;20011;-76
2022/01/05 11:50:56;;;;;;;;;;;8.40;99.90;;;;;;5056432;28;19921;-75
2022/01/05 11:53:39;;;;;;;;;;;6.70;99.90;;;;;;5056458;28;19920;-74
2022/01/05 11:56:07;;;;;;;;;;;6.70;99.90;;;;;;5056248;28;19931;-73
2022/01/05 11:58:34;;;;;;;;;;;7.10;99.90;;;;;;5056374;28;19924;-74
2022/01/05 12:01:12;;;;;;;;;;;6.70;99.90;;;;;;5056261;28;19920;-75
2022/01/05 12:03:59;;;;;;;;;;;6.80;99.90;;;;;;5056137;28;19978;-73
2022/01/05 12:06:32;;;;;;;;;;;6.80;99.90;;;;;;5071698;28;19928;-74
2022/01/05 12:08:58;;;;;;;;;;;6.80;99.90;;;;;;5056131;28;19975;-74
2022/01/05 12:11:42;;;;;;;;;;;6.80;99.90;;;;;;5055208;28;19924;-74
2022/01/05 12:14:19;;;;;;;;;;;6.90;99.90;;;;;;5055958;28;20380;-75
2022/01/05 12:19:27;;;;;;;;;;;6.90;99.90;;;;;;5054898;28;19928;-74
2022/01/05 12:21:54;;;;;;;;;;;7.70;99.90;;;;;;5054772;28;19935;-75
2022/01/05 12:24:20;;;;;;;;;;;7.50;99.90;;;;;;5055948;28;19968;-73
2022/01/05 12:27:06;;;;;;;;;;;6.70;99.90;;;;;;5055665;28;19970;-73
2022/01/05 12:29:31;;;;;;;;;;;6.70;99.90;;;;;;5051822;28;19921;-74
2022/01/05 12:31:58;;;;;;;;;;;6.80;99.90;;;;;;5055294;28;19921;-74
2022/01/05 12:34:43;;;;;;;;;;;7.00;99.90;;;;;;5054499;28;19921;-74
2022/01/05 12:37:27;;;;;;;;;;;6.60;99.90;;;;;;5055022;28;19920;-75
2022/01/05 12:39:56;;;;;;;;;;;6.60;99.90;;;;;;5055619;28;20018;-74
2022/01/05 12:42:22;;;;;;;;;;;7.40;99.90;;;;;;5055650;28;19968;-73
2022/01/05 12:44:48;;;;;;;;;;;6.70;99.90;;;;;;5055443;28;19928;-75
2022/01/05 12:47:14;;;;;;;;;;;8.00;99.90;;;;;;5055414;28;19925;-76
2022/01/05 12:49:39;;;;;;;;;;;6.70;99.90;;;;;;5055292;28;19966;-74
2022/01/05 12:52:07;;;;;;;;;;;7.90;99.90;;;;;;5055086;28;19928;-73
2022/01/05 12:54:41;;;;;;;;;;;7.40;99.90;;;;;;5054306;28;20007;-73
2022/01/05 12:57:09;;;;;;;;;;;6.90;99.90;;;;;;5055436;28;19920;-74
2022/01/05 12:59:36;;;;;;;;;;;6.90;99.90;;;;;;5054298;28;20383;-73
2022/01/05 13:02:06;;;;;;;;;;;8.20;99.90;;;;;;5055197;28;19921;-73
2022/01/05 13:04:32;;;;;;;;;;;6.90;99.90;;;;;;5055134;28;19956;-72
2022/01/05 13:07:02;;;;;;;;;;;7.70;99.90;;;;;;5054928;28;19921;-73
2022/01/05 13:09:32;;;;;;;;;;;6.80;99.90;;;;;;5054361;28;19920;-72
2022/01/05 13:11:59;;;;;;;;;;;6.70;99.90;;;;;;5054353;28;20020;-75
2022/01/05 13:14:28;;;;;;;;;;;6.70;99.90;;;;;;5054978;28;20011;-73
2022/01/05 13:16:55;;;;;;;;;;;7.00;99.90;;;;;;5054884;28;19925;-73
2022/01/05 13:19:34;;;;;;;;;;;6.70;99.90;;;;;;5055214;28;20330;-74
2022/01/05 13:22:05;;;;;;;;;;;6.70;99.90;;;;;;5054985;28;20040;-73
2022/01/05 13:24:41;;;;;;;;;;;7.00;99.90;;;;;;5053812;28;19974;-73
2022/01/05 13:27:07;;;;;;;;;;;7.30;99.90;;;;;;5054764;28;19975;-74
2022/01/05 13:29:34;;;;;;;;;;;6.80;99.90;;;;;;5054731;28;19921;-73
2022/01/05 13:32:04;;;;;;;;;;;6.80;99.90;;;;;;5053553;28;19967;-73
2022/01/05 13:34:30;;;;;;;;;;;6.70;99.90;;;;;;5054853;28;20034;-73
2022/01/05 13:36:56;;;;;;;;;;;6.70;99.90;;;;;;5054611;28;19943;-74
2022/01/05 13:39:45;;;;;;;;;;;6.60;99.90;;;;;;5054410;28;20019;-73
2022/01/05 13:42:18;;;;;;;;;;;6.80;99.90;;;;;;5032398;28;19921;-73
2022/01/05 13:44:46;;;;;;;;;;;6.50;99.90;;;;;;5031790;28;19976;-73
2022/01/05 13:47:13;;;;;;;;;;;6.40;99.90;;;;;;5015742;28;19971;-72
2022/01/05 13:49:38;;;;;;;;;;;6.40;99.90;;;;;;5032228;28;19921;-74
2022/01/05 13:52:15;;;;;;;;;;;6.40;99.90;;;;;;5015792;28;20039;-72
2022/01/05 13:54:42;;;;;;;;;;;6.30;99.90;;;;;;5015981;28;19920;-74
2022/01/05 13:57:26;;;;;;;;;;;6.30;99.90;;;;;;5032023;28;19972;-72
2022/01/05 13:59:57;;;;;;;;;;;6.30;99.90;;;;;;5031879;28;19920;-73
2022/01/05 14:02:23;;;;;;;;;;;6.30;99.90;;;;;;5015849;28;19924;-73
2022/01/05 14:04:50;;;;;;;;;;;6.20;99.90;;;;;;5015857;28;20015;-73
2022/01/05 14:07:16;;;;;;;;;;;6.20;99.90;;;;;;5031435;28;20028;-74
2022/01/05 14:09:42;;;;;;;;;;;6.90;99.90;;;;;;5032072;28;20299;-73
2022/01/05 14:12:28;;;;;;;;;;;6.20;99.90;;;;;;5015535;28;19921;-72
2022/01/05 14:14:55;;;;;;;;;;;6.20;99.90;;;;;;5031397;28;20384;-73
2022/01/05 14:17:21;;;;;;;;;;;6.20;99.90;;;;;;5031873;28;19920;-73
2022/01/05 14:19:47;;;;;;;;;;;6.20;99.90;;;;;;5043216;28;19946;-73
2022/01/05 14:22:19;;;;;;;;;;;6.10;99.90;;;;;;5053616;28;20015;-72
2022/01/05 14:24:46;;;;;;;;;;;6.10;99.90;;;;;;5054015;28;20387;-73
2022/01/05 14:27:17;;;;;;;;;;;6.00;99.90;;;;;;5053783;28;19974;-73
2022/01/05 14:29:43;;;;;;;;;;;6.00;99.90;;;;;;5053827;28;19921;-73
2022/01/05 14:32:12;;;;;;;;;;;5.90;99.90;;;;;;5053624;28;19921;-74
2022/01/05 14:34:43;;;;;;;;;;;5.80;99.90;;;;;;5053577;28;20022;-72
2022/01/05 14:37:11;;;;;;;;;;;5.70;99.90;;;;;;5052785;28;19920;-73